sensor_id;sensor_type;location;lat;lon;timestamp;P1;durP1;ratioP1;P2;durP2;ratioP2
11618;SDS011;5865;48.776;9.280;2023-03-01T00:01:12;12.87;;;8.60;;
11618;SDS011;5865;48.776;9.280;2023-03-01T00:03:40;13.73;;;8.87;;
11618;SDS011;5865;48.776;9.280;2023-03-01T00:06:07;13.40;;;8.30;;
11618;SDS011;5865;48.776;9.280;2023-03-01T00:08:34;13.67;;;8.83;;
11618;SDS011;5865;48.776;9.280;2023-03-01T00:11:03;14.27;;;9.23;;
11618;SDS011;5865;48.776;9.280;2023-03-01T00:13:31;13.27;;;8.27;;
11618;SDS011;5865;48.776;9.280;2023-03-01T00:15:58;13.87;;;9.20;;
11618;SDS011;5865;48.776;9.280;2023-03-01T00:18:26;12.37;;;8.27;;
11618;SDS011;5865;48.776;9.280;2023-03-01T00:20:54;12.27;;;8.03;;
11618;SDS011;5865;48.776;9.280;2023-03-01T00:23:23;14.17;;;8.47;;
11618;SDS011;5865;48.776;9.280;2023-03-01T00:25:52;13.40;;;8.63;;
11618;SDS011;5865;48.776;9.280;2023-03-01T00:28:19;12.73;;;8.43;;
11618;SDS011;5865;48.776;9.280;2023-03-01T00:30:46;14.30;;;9.20;;
11618;SDS011;5865;48.776;9.280;2023-03-01T00:33:14;14.40;;;9.40;;
11618;SDS011;5865;48.776;9.280;2023-03-01T00:35:42;16.40;;;10.40;;
11618;SDS011;5865;48.776;9.280;2023-03-01T00:38:09;13.80;;;10.27;;
11618;SDS011;5865;48.776;9.280;2023-03-01T00:40:36;13.90;;;9.20;;
11618;SDS011;5865;48.776;9.280;2023-03-01T00:43:04;18.10;;;12.17;;
11618;SDS011;5865;48.776;9.280;2023-03-01T00:45:32;17.50;;;12.17;;
11618;SDS011;5865;48.776;9.280;2023-03-01T00:47:59;17.10;;;11.93;;
11618;SDS011;5865;48.776;9.280;2023-03-01T00:50:26;17.87;;;13.00;;
11618;SDS011;5865;48.776;9.280;2023-03-01T00:52:55;19.53;;;12.93;;
11618;SDS011;5865;48.776;9.280;2023-03-01T00:55:22;18.47;;;12.90;;
11618;SDS011;5865;48.776;9.280;2023-03-01T00:57:50;19.57;;;12.37;;
11618;SDS011;5865;48.776;9.280;2023-03-01T01:00:17;18.17;;;11.27;;
11618;SDS011;5865;48.776;9.280;2023-03-01T01:02:46;19.57;;;10.90;;
11618;SDS011;5865;48.776;9.280;2023-03-01T01:05:14;16.30;;;10.17;;
11618;SDS011;5865;48.776;9.280;2023-03-01T01:07:46;15.97;;;9.90;;
11618;SDS011;5865;48.776;9.280;2023-03-01T01:10:14;15.73;;;11.00;;
11618;SDS011;5865;48.776;9.280;2023-03-01T01:12:43;18.20;;;10.50;;
11618;SDS011;5865;48.776;9.280;2023-03-01T01:15:10;17.53;;;10.40;;
11618;SDS011;5865;48.776;9.280;2023-03-01T01:17:39;17.63;;;10.53;;
11618;SDS011;5865;48.776;9.280;2023-03-01T01:20:07;19.10;;;10.43;;
11618;SDS011;5865;48.776;9.280;2023-03-01T01:22:35;14.97;;;10.63;;
11618;SDS011;5865;48.776;9.280;2023-03-01T01:25:03;17.33;;;9.97;;
11618;SDS011;5865;48.776;9.280;2023-03-01T01:27:31;16.53;;;9.93;;
11618;SDS011;5865;48.776;9.280;2023-03-01T01:29:58;17.83;;;10.83;;
11618;SDS011;5865;48.776;9.280;2023-03-01T01:32:26;17.97;;;11.43;;
11618;SDS011;5865;48.776;9.280;2023-03-01T01:34:53;15.67;;;9.93;;
11618;SDS011;5865;48.776;9.280;2023-03-01T01:37:21;14.37;;;9.63;;
11618;SDS011;5865;48.776;9.280;2023-03-01T01:39:48;17.90;;;10.80;;
11618;SDS011;5865;48.776;9.280;2023-03-01T01:42:15;15.13;;;9.40;;
11618;SDS011;5865;48.776;9.280;2023-03-01T01:44:46;15.87;;;9.47;;
11618;SDS011;5865;48.776;9.280;2023-03-01T01:47:14;14.63;;;9.47;;
11618;SDS011;5865;48.776;9.280;2023-03-01T01:49:44;14.77;;;9.93;;
11618;SDS011;5865;48.776;9.280;2023-03-01T01:52:16;16.53;;;10.00;;
11618;SDS011;5865;48.776;9.280;2023-03-01T01:54:50;16.47;;;10.43;;
11618;SDS011;5865;48.776;9.280;2023-03-01T01:57:22;14.90;;;10.50;;
11618;SDS011;5865;48.776;9.280;2023-03-01T01:59:57;17.20;;;9.90;;
11618;SDS011;5865;48.776;9.280;2023-03-01T02:02:38;15.50;;;10.10;;
11618;SDS011;5865;48.776;9.280;2023-03-01T02:05:09;17.10;;;10.50;;
11618;SDS011;5865;48.776;9.280;2023-03-01T02:07:40;16.70;;;10.47;;
11618;SDS011;5865;48.776;9.280;2023-03-01T02:10:09;20.83;;;10.37;;
11618;SDS011;5865;48.776;9.280;2023-03-01T02:12:37;19.70;;;10.47;;
11618;SDS011;5865;48.776;9.280;2023-03-01T02:15:08;16.30;;;10.17;;
11618;SDS011;5865;48.776;9.280;2023-03-01T02:17:49;17.77;;;10.70;;
11618;SDS011;5865;48.776;9.280;2023-03-01T02:20:19;18.27;;;10.53;;
11618;SDS011;5865;48.776;9.280;2023-03-01T02:22:52;16.27;;;10.10;;
11618;SDS011;5865;48.776;9.280;2023-03-01T02:25:28;16.00;;;9.97;;
11618;SDS011;5865;48.776;9.280;2023-03-01T02:28:04;15.57;;;9.87;;
11618;SDS011;5865;48.776;9.280;2023-03-01T02:30:40;17.33;;;10.30;;
11618;SDS011;5865;48.776;9.280;2023-03-01T02:33:27;18.27;;;10.17;;
11618;SDS011;5865;48.776;9.280;2023-03-01T02:35:57;14.57;;;10.03;;
11618;SDS011;5865;48.776;9.280;2023-03-01T02:38:26;14.93;;;9.70;;
11618;SDS011;5865;48.776;9.280;2023-03-01T02:40:55;15.57;;;10.20;;
11618;SDS011;5865;48.776;9.280;2023-03-01T02:43:27;16.73;;;10.03;;
11618;SDS011;5865;48.776;9.280;2023-03-01T02:45:59;14.47;;;9.63;;
11618;SDS011;5865;48.776;9.280;2023-03-01T02:48:38;15.13;;;10.07;;
11618;SDS011;5865;48.776;9.280;2023-03-01T02:51:07;16.77;;;10.10;;
11618;SDS011;5865;48.776;9.280;2023-03-01T02:53:45;16.07;;;10.10;;
11618;SDS011;5865;48.776;9.280;2023-03-01T02:56:21;15.33;;;10.27;;
11618;SDS011;5865;48.776;9.280;2023-03-01T02:58:48;15.10;;;9.90;;
11618;SDS011;5865;48.776;9.280;2023-03-01T03:01:19;14.47;;;10.13;;
11618;SDS011;5865;48.776;9.280;2023-03-01T03:03:46;17.00;;;10.10;;
11618;SDS011;5865;48.776;9.280;2023-03-01T03:06:13;17.13;;;10.40;;
11618;SDS011;5865;48.776;9.280;2023-03-01T03:08:41;17.87;;;10.40;;
11618;SDS011;5865;48.776;9.280;2023-03-01T03:11:09;16.13;;;10.43;;
11618;SDS011;5865;48.776;9.280;2023-03-01T03:13:36;14.73;;;10.03;;
11618;SDS011;5865;48.776;9.280;2023-03-01T03:16:13;16.17;;;10.23;;
11618;SDS011;5865;48.776;9.280;2023-03-01T03:18:42;16.30;;;10.10;;
11618;SDS011;5865;48.776;9.280;2023-03-01T03:21:09;16.03;;;10.60;;
11618;SDS011;5865;48.776;9.280;2023-03-01T03:23:37;17.53;;;10.67;;
11618;SDS011;5865;48.776;9.280;2023-03-01T03:26:04;16.20;;;10.60;;
11618;SDS011;5865;48.776;9.280;2023-03-01T03:28:31;16.60;;;10.40;;
11618;SDS011;5865;48.776;9.280;2023-03-01T03:30:59;15.87;;;10.00;;
11618;SDS011;5865;48.776;9.280;2023-03-01T03:33:29;15.03;;;10.50;;
11618;SDS011;5865;48.776;9.280;2023-03-01T03:35:57;15.23;;;10.23;;
11618;SDS011;5865;48.776;9.280;2023-03-01T03:38:24;16.83;;;10.73;;
11618;SDS011;5865;48.776;9.280;2023-03-01T03:40:54;15.63;;;10.27;;
11618;SDS011;5865;48.776;9.280;2023-03-01T03:43:27;17.10;;;10.50;;
11618;SDS011;5865;48.776;9.280;2023-03-01T03:45:55;15.37;;;10.73;;
11618;SDS011;5865;48.776;9.280;2023-03-01T03:48:23;15.57;;;9.87;;
11618;SDS011;5865;48.776;9.280;2023-03-01T03:50:52;14.83;;;10.07;;
11618;SDS011;5865;48.776;9.280;2023-03-01T03:53:23;15.37;;;10.53;;
11618;SDS011;5865;48.776;9.280;2023-03-01T03:55:52;18.67;;;11.17;;
11618;SDS011;5865;48.776;9.280;2023-03-01T03:58:19;17.17;;;10.97;;
11618;SDS011;5865;48.776;9.280;2023-03-01T04:00:49;15.60;;;10.43;;
11618;SDS011;5865;48.776;9.280;2023-03-01T04:03:18;17.00;;;11.00;;
11618;SDS011;5865;48.776;9.280;2023-03-01T04:05:46;13.80;;;9.67;;
11618;SDS011;5865;48.776;9.280;2023-03-01T04:08:15;15.87;;;10.93;;
11618;SDS011;5865;48.776;9.280;2023-03-01T04:10:47;17.30;;;11.00;;
11618;SDS011;5865;48.776;9.280;2023-03-01T04:13:15;16.67;;;10.87;;
11618;SDS011;5865;48.776;9.280;2023-03-01T04:15:45;17.43;;;11.27;;
11618;SDS011;5865;48.776;9.280;2023-03-01T04:18:12;17.40;;;11.00;;
11618;SDS011;5865;48.776;9.280;2023-03-01T04:20:39;19.20;;;11.10;;
11618;SDS011;5865;48.776;9.280;2023-03-01T04:23:07;16.53;;;11.00;;
11618;SDS011;5865;48.776;9.280;2023-03-01T04:25:41;15.17;;;10.13;;
11618;SDS011;5865;48.776;9.280;2023-03-01T04:28:14;15.33;;;10.03;;
11618;SDS011;5865;48.776;9.280;2023-03-01T04:30:42;16.77;;;10.27;;
11618;SDS011;5865;48.776;9.280;2023-03-01T04:33:10;16.27;;;10.43;;
11618;SDS011;5865;48.776;9.280;2023-03-01T04:35:37;17.00;;;11.13;;
11618;SDS011;5865;48.776;9.280;2023-03-01T04:38:05;18.20;;;11.00;;
11618;SDS011;5865;48.776;9.280;2023-03-01T04:40:33;15.20;;;10.87;;
11618;SDS011;5865;48.776;9.280;2023-03-01T04:43:02;17.60;;;10.50;;
11618;SDS011;5865;48.776;9.280;2023-03-01T04:45:29;17.17;;;10.63;;
11618;SDS011;5865;48.776;9.280;2023-03-01T04:47:59;18.50;;;11.57;;
11618;SDS011;5865;48.776;9.280;2023-03-01T04:50:26;19.73;;;11.37;;
11618;SDS011;5865;48.776;9.280;2023-03-01T04:52:54;17.93;;;11.07;;
11618;SDS011;5865;48.776;9.280;2023-03-01T04:55:24;18.10;;;11.10;;
11618;SDS011;5865;48.776;9.280;2023-03-01T04:57:51;17.00;;;11.47;;
11618;SDS011;5865;48.776;9.280;2023-03-01T05:00:20;16.33;;;10.73;;
11618;SDS011;5865;48.776;9.280;2023-03-01T05:02:49;19.30;;;10.70;;
11618;SDS011;5865;48.776;9.280;2023-03-01T05:05:21;16.87;;;10.67;;
11618;SDS011;5865;48.776;9.280;2023-03-01T05:07:51;17.27;;;10.97;;
11618;SDS011;5865;48.776;9.280;2023-03-01T05:10:19;18.27;;;11.43;;
11618;SDS011;5865;48.776;9.280;2023-03-01T05:12:46;16.90;;;11.07;;
11618;SDS011;5865;48.776;9.280;2023-03-01T05:15:13;16.30;;;10.30;;
11618;SDS011;5865;48.776;9.280;2023-03-01T05:17:41;18.40;;;10.63;;
11618;SDS011;5865;48.776;9.280;2023-03-01T05:20:09;16.93;;;11.20;;
11618;SDS011;5865;48.776;9.280;2023-03-01T05:22:36;19.47;;;12.03;;
11618;SDS011;5865;48.776;9.280;2023-03-01T05:25:04;16.30;;;10.43;;
11618;SDS011;5865;48.776;9.280;2023-03-01T05:27:39;17.73;;;11.33;;
11618;SDS011;5865;48.776;9.280;2023-03-01T05:30:08;16.93;;;10.93;;
11618;SDS011;5865;48.776;9.280;2023-03-01T05:32:41;16.60;;;11.27;;
11618;SDS011;5865;48.776;9.280;2023-03-01T05:35:10;19.33;;;11.23;;
11618;SDS011;5865;48.776;9.280;2023-03-01T05:37:40;17.47;;;11.27;;
11618;SDS011;5865;48.776;9.280;2023-03-01T05:40:08;17.73;;;10.97;;
11618;SDS011;5865;48.776;9.280;2023-03-01T05:42:41;17.10;;;11.53;;
11618;SDS011;5865;48.776;9.280;2023-03-01T05:45:09;15.67;;;10.67;;
11618;SDS011;5865;48.776;9.280;2023-03-01T05:47:37;18.50;;;11.50;;
11618;SDS011;5865;48.776;9.280;2023-03-01T05:50:11;18.87;;;11.03;;
11618;SDS011;5865;48.776;9.280;2023-03-01T05:52:38;19.73;;;10.90;;
11618;SDS011;5865;48.776;9.280;2023-03-01T05:55:06;16.87;;;11.10;;
11618;SDS011;5865;48.776;9.280;2023-03-01T05:57:34;17.63;;;10.97;;
11618;SDS011;5865;48.776;9.280;2023-03-01T06:00:01;19.77;;;11.57;;
11618;SDS011;5865;48.776;9.280;2023-03-01T06:02:37;19.03;;;11.50;;
11618;SDS011;5865;48.776;9.280;2023-03-01T06:05:05;18.20;;;11.10;;
11618;SDS011;5865;48.776;9.280;2023-03-01T06:07:34;21.17;;;11.53;;
11618;SDS011;5865;48.776;9.280;2023-03-01T06:10:02;19.50;;;12.03;;
11618;SDS011;5865;48.776;9.280;2023-03-01T06:12:30;17.00;;;11.13;;
11618;SDS011;5865;48.776;9.280;2023-03-01T06:14:57;19.13;;;11.23;;
11618;SDS011;5865;48.776;9.280;2023-03-01T06:17:25;18.43;;;11.47;;
11618;SDS011;5865;48.776;9.280;2023-03-01T06:19:52;19.27;;;11.63;;
11618;SDS011;5865;48.776;9.280;2023-03-01T06:22:19;18.30;;;12.00;;
11618;SDS011;5865;48.776;9.280;2023-03-01T06:24:48;18.27;;;11.57;;
11618;SDS011;5865;48.776;9.280;2023-03-01T06:27:15;16.23;;;10.40;;
11618;SDS011;5865;48.776;9.280;2023-03-01T06:29:42;18.77;;;11.50;;
11618;SDS011;5865;48.776;9.280;2023-03-01T06:32:09;17.97;;;11.40;;
11618;SDS011;5865;48.776;9.280;2023-03-01T06:34:36;17.90;;;11.37;;
11618;SDS011;5865;48.776;9.280;2023-03-01T06:37:04;20.17;;;11.37;;
11618;SDS011;5865;48.776;9.280;2023-03-01T06:39:31;18.60;;;11.57;;
11618;SDS011;5865;48.776;9.280;2023-03-01T06:41:59;17.83;;;11.53;;
11618;SDS011;5865;48.776;9.280;2023-03-01T06:44:27;18.53;;;11.73;;
11618;SDS011;5865;48.776;9.280;2023-03-01T06:46:54;19.03;;;12.37;;
11618;SDS011;5865;48.776;9.280;2023-03-01T06:49:21;21.13;;;11.90;;
11618;SDS011;5865;48.776;9.280;2023-03-01T06:51:48;19.63;;;11.80;;
11618;SDS011;5865;48.776;9.280;2023-03-01T06:54:15;20.57;;;12.37;;
11618;SDS011;5865;48.776;9.280;2023-03-01T06:56:43;18.87;;;12.67;;
11618;SDS011;5865;48.776;9.280;2023-03-01T06:59:15;20.47;;;11.77;;
11618;SDS011;5865;48.776;9.280;2023-03-01T07:01:42;18.23;;;12.37;;
11618;SDS011;5865;48.776;9.280;2023-03-01T07:04:09;18.53;;;11.70;;
11618;SDS011;5865;48.776;9.280;2023-03-01T07:06:37;19.90;;;11.83;;
11618;SDS011;5865;48.776;9.280;2023-03-01T07:09:04;19.43;;;11.83;;
11618;SDS011;5865;48.776;9.280;2023-03-01T07:11:33;17.60;;;11.43;;
11618;SDS011;5865;48.776;9.280;2023-03-01T07:14:01;22.10;;;12.10;;
11618;SDS011;5865;48.776;9.280;2023-03-01T07:16:34;18.47;;;12.00;;
11618;SDS011;5865;48.776;9.280;2023-03-01T07:19:01;17.67;;;11.50;;
11618;SDS011;5865;48.776;9.280;2023-03-01T07:21:30;25.10;;;12.07;;
11618;SDS011;5865;48.776;9.280;2023-03-01T07:23:57;18.97;;;11.80;;
11618;SDS011;5865;48.776;9.280;2023-03-01T07:26:26;20.90;;;12.93;;
11618;SDS011;5865;48.776;9.280;2023-03-01T07:28:53;19.37;;;11.53;;
11618;SDS011;5865;48.776;9.280;2023-03-01T07:31:22;18.73;;;11.87;;
11618;SDS011;5865;48.776;9.280;2023-03-01T07:34:00;21.30;;;12.70;;
11618;SDS011;5865;48.776;9.280;2023-03-01T07:36:29;18.97;;;12.00;;
11618;SDS011;5865;48.776;9.280;2023-03-01T07:39:04;20.47;;;11.87;;
11618;SDS011;5865;48.776;9.280;2023-03-01T07:41:32;18.47;;;12.07;;
11618;SDS011;5865;48.776;9.280;2023-03-01T07:44:00;17.33;;;11.13;;
11618;SDS011;5865;48.776;9.280;2023-03-01T07:46:26;19.90;;;12.23;;
11618;SDS011;5865;48.776;9.280;2023-03-01T07:48:55;19.20;;;12.20;;
11618;SDS011;5865;48.776;9.280;2023-03-01T07:51:24;18.67;;;11.53;;
11618;SDS011;5865;48.776;9.280;2023-03-01T07:53:51;20.37;;;11.80;;
11618;SDS011;5865;48.776;9.280;2023-03-01T07:56:18;19.77;;;11.57;;
11618;SDS011;5865;48.776;9.280;2023-03-01T07:58:47;18.63;;;12.10;;
11618;SDS011;5865;48.776;9.280;2023-03-01T08:01:17;15.40;;;11.07;;
11618;SDS011;5865;48.776;9.280;2023-03-01T08:03:46;19.13;;;11.30;;
11618;SDS011;5865;48.776;9.280;2023-03-01T08:06:15;17.13;;;11.93;;
11618;SDS011;5865;48.776;9.280;2023-03-01T08:08:44;24.13;;;12.30;;
11618;SDS011;5865;48.776;9.280;2023-03-01T08:11:16;19.27;;;12.00;;
11618;SDS011;5865;48.776;9.280;2023-03-01T08:13:53;20.00;;;12.07;;
11618;SDS011;5865;48.776;9.280;2023-03-01T08:16:23;19.73;;;12.23;;
11618;SDS011;5865;48.776;9.280;2023-03-01T08:18:54;17.87;;;11.97;;
11618;SDS011;5865;48.776;9.280;2023-03-01T08:21:26;19.00;;;11.77;;
11618;SDS011;5865;48.776;9.280;2023-03-01T08:23:57;19.57;;;11.83;;
11618;SDS011;5865;48.776;9.280;2023-03-01T08:26:25;17.63;;;11.73;;
11618;SDS011;5865;48.776;9.280;2023-03-01T08:28:53;17.47;;;11.83;;
11618;SDS011;5865;48.776;9.280;2023-03-01T08:31:22;18.60;;;11.77;;
11618;SDS011;5865;48.776;9.280;2023-03-01T08:33:54;18.27;;;11.77;;
11618;SDS011;5865;48.776;9.280;2023-03-01T08:36:23;18.47;;;12.00;;
11618;SDS011;5865;48.776;9.280;2023-03-01T08:38:52;16.20;;;11.40;;
11618;SDS011;5865;48.776;9.280;2023-03-01T08:41:22;19.73;;;12.40;;
11618;SDS011;5865;48.776;9.280;2023-03-01T08:43:50;19.87;;;12.63;;
11618;SDS011;5865;48.776;9.280;2023-03-01T08:46:23;20.37;;;12.20;;
11618;SDS011;5865;48.776;9.280;2023-03-01T08:48:52;17.93;;;12.30;;
11618;SDS011;5865;48.776;9.280;2023-03-01T08:51:21;20.27;;;12.90;;
11618;SDS011;5865;48.776;9.280;2023-03-01T08:53:49;19.33;;;12.57;;
11618;SDS011;5865;48.776;9.280;2023-03-01T08:56:18;17.80;;;11.90;;
11618;SDS011;5865;48.776;9.280;2023-03-01T08:58:48;17.87;;;11.90;;
11618;SDS011;5865;48.776;9.280;2023-03-01T09:01:17;19.50;;;13.10;;
11618;SDS011;5865;48.776;9.280;2023-03-01T09:03:45;17.73;;;11.93;;
11618;SDS011;5865;48.776;9.280;2023-03-01T09:06:14;18.23;;;11.97;;
11618;SDS011;5865;48.776;9.280;2023-03-01T09:08:42;16.67;;;11.50;;
11618;SDS011;5865;48.776;9.280;2023-03-01T09:11:13;17.80;;;11.73;;
11618;SDS011;5865;48.776;9.280;2023-03-01T09:13:43;17.67;;;12.20;;
11618;SDS011;5865;48.776;9.280;2023-03-01T09:16:13;19.87;;;12.60;;
11618;SDS011;5865;48.776;9.280;2023-03-01T09:18:44;18.20;;;11.90;;
11618;SDS011;5865;48.776;9.280;2023-03-01T09:21:12;17.73;;;12.13;;
11618;SDS011;5865;48.776;9.280;2023-03-01T09:23:41;17.27;;;11.63;;
11618;SDS011;5865;48.776;9.280;2023-03-01T09:26:10;18.60;;;12.17;;
11618;SDS011;5865;48.776;9.280;2023-03-01T09:28:41;18.90;;;13.20;;
11618;SDS011;5865;48.776;9.280;2023-03-01T09:31:13;18.00;;;12.43;;
11618;SDS011;5865;48.776;9.280;2023-03-01T09:33:42;17.63;;;12.27;;
11618;SDS011;5865;48.776;9.280;2023-03-01T09:36:11;17.27;;;11.87;;
11618;SDS011;5865;48.776;9.280;2023-03-01T09:38:40;17.67;;;11.87;;
11618;SDS011;5865;48.776;9.280;2023-03-01T09:41:11;19.07;;;12.50;;
11618;SDS011;5865;48.776;9.280;2023-03-01T09:43:53;16.97;;;11.87;;
11618;SDS011;5865;48.776;9.280;2023-03-01T09:46:32;18.10;;;12.03;;
11618;SDS011;5865;48.776;9.280;2023-03-01T09:49:04;16.40;;;11.17;;
11618;SDS011;5865;48.776;9.280;2023-03-01T09:51:36;17.63;;;11.53;;
11618;SDS011;5865;48.776;9.280;2023-03-01T09:54:04;17.50;;;12.70;;
11618;SDS011;5865;48.776;9.280;2023-03-01T09:56:33;17.10;;;11.67;;
11618;SDS011;5865;48.776;9.280;2023-03-01T09:59:08;17.10;;;11.97;;
11618;SDS011;5865;48.776;9.280;2023-03-01T10:01:50;17.03;;;11.53;;
11618;SDS011;5865;48.776;9.280;2023-03-01T10:04:32;19.47;;;11.93;;
11618;SDS011;5865;48.776;9.280;2023-03-01T10:09:59;14.73;;;11.10;;
11618;SDS011;5865;48.776;9.280;2023-03-01T10:12:31;16.50;;;11.70;;
11618;SDS011;5865;48.776;9.280;2023-03-01T10:15:03;15.87;;;10.87;;
11618;SDS011;5865;48.776;9.280;2023-03-01T10:17:37;17.43;;;12.40;;
11618;SDS011;5865;48.776;9.280;2023-03-01T10:20:14;18.33;;;12.37;;
11618;SDS011;5865;48.776;9.280;2023-03-01T10:22:46;16.27;;;10.97;;
11618;SDS011;5865;48.776;9.280;2023-03-01T10:25:23;14.83;;;11.17;;
11618;SDS011;5865;48.776;9.280;2023-03-01T10:27:52;16.53;;;11.50;;
11618;SDS011;5865;48.776;9.280;2023-03-01T10:30:22;17.47;;;11.33;;
11618;SDS011;5865;48.776;9.280;2023-03-01T10:33:00;15.67;;;11.47;;
11618;SDS011;5865;48.776;9.280;2023-03-01T10:35:29;16.20;;;11.07;;
11618;SDS011;5865;48.776;9.280;2023-03-01T10:38:02;17.10;;;11.37;;
11618;SDS011;5865;48.776;9.280;2023-03-01T10:40:31;17.97;;;11.73;;
11618;SDS011;5865;48.776;9.280;2023-03-01T10:42:58;16.40;;;11.40;;
11618;SDS011;5865;48.776;9.280;2023-03-01T10:45:31;16.17;;;11.53;;
11618;SDS011;5865;48.776;9.280;2023-03-01T10:48:10;15.70;;;11.13;;
11618;SDS011;5865;48.776;9.280;2023-03-01T10:50:40;18.40;;;11.73;;
11618;SDS011;5865;48.776;9.280;2023-03-01T10:55:57;18.13;;;11.33;;
11618;SDS011;5865;48.776;9.280;2023-03-01T10:58:27;15.20;;;11.03;;
11618;SDS011;5865;48.776;9.280;2023-03-01T11:00:57;16.10;;;11.23;;
11618;SDS011;5865;48.776;9.280;2023-03-01T11:03:29;15.97;;;11.40;;
11618;SDS011;5865;48.776;9.280;2023-03-01T11:06:00;16.90;;;11.13;;
11618;SDS011;5865;48.776;9.280;2023-03-01T11:08:31;15.13;;;11.10;;
11618;SDS011;5865;48.776;9.280;2023-03-01T11:11:14;16.07;;;10.93;;
11618;SDS011;5865;48.776;9.280;2023-03-01T11:13:56;16.20;;;10.87;;
11618;SDS011;5865;48.776;9.280;2023-03-01T11:16:26;16.67;;;12.43;;
11618;SDS011;5865;48.776;9.280;2023-03-01T11:18:57;15.50;;;10.93;;
11618;SDS011;5865;48.776;9.280;2023-03-01T11:21:27;15.83;;;11.47;;
11618;SDS011;5865;48.776;9.280;2023-03-01T11:23:58;15.00;;;11.40;;
11618;SDS011;5865;48.776;9.280;2023-03-01T11:26:28;13.70;;;10.53;;
11618;SDS011;5865;48.776;9.280;2023-03-01T11:28:58;15.00;;;11.43;;
11618;SDS011;5865;48.776;9.280;2023-03-01T11:31:30;15.40;;;11.37;;
11618;SDS011;5865;48.776;9.280;2023-03-01T11:34:02;15.47;;;11.67;;
11618;SDS011;5865;48.776;9.280;2023-03-01T11:36:35;15.47;;;11.00;;
11618;SDS011;5865;48.776;9.280;2023-03-01T11:39:12;16.67;;;11.03;;
11618;SDS011;5865;48.776;9.280;2023-03-01T11:41:46;14.90;;;10.87;;
11618;SDS011;5865;48.776;9.280;2023-03-01T11:44:20;16.63;;;10.87;;
11618;SDS011;5865;48.776;9.280;2023-03-01T11:46:58;20.43;;;15.70;;
11618;SDS011;5865;48.776;9.280;2023-03-01T11:49:51;14.83;;;11.10;;
11618;SDS011;5865;48.776;9.280;2023-03-01T11:52:29;14.37;;;11.10;;
11618;SDS011;5865;48.776;9.280;2023-03-01T11:55:17;14.80;;;10.77;;
11618;SDS011;5865;48.776;9.280;2023-03-01T11:58:03;13.73;;;10.87;;
11618;SDS011;5865;48.776;9.280;2023-03-01T12:00:49;14.27;;;10.53;;
11618;SDS011;5865;48.776;9.280;2023-03-01T12:06:45;16.63;;;11.37;;
11618;SDS011;5865;48.776;9.280;2023-03-01T12:09:29;16.53;;;11.27;;
11618;SDS011;5865;48.776;9.280;2023-03-01T12:15:07;13.93;;;11.03;;
11618;SDS011;5865;48.776;9.280;2023-03-01T12:17:58;16.43;;;10.77;;
11618;SDS011;5865;48.776;9.280;2023-03-01T12:20:39;14.47;;;10.37;;
11618;SDS011;5865;48.776;9.280;2023-03-01T12:26:26;14.17;;;10.27;;
11618;SDS011;5865;48.776;9.280;2023-03-01T12:29:02;13.53;;;10.67;;
11618;SDS011;5865;48.776;9.280;2023-03-01T12:31:43;13.70;;;10.07;;
11618;SDS011;5865;48.776;9.280;2023-03-01T12:34:28;13.97;;;9.80;;
11618;SDS011;5865;48.776;9.280;2023-03-01T12:37:15;15.27;;;10.83;;
11618;SDS011;5865;48.776;9.280;2023-03-01T12:40:12;14.97;;;10.43;;
11618;SDS011;5865;48.776;9.280;2023-03-01T12:42:57;14.67;;;10.63;;
11618;SDS011;5865;48.776;9.280;2023-03-01T12:45:43;15.10;;;10.67;;
11618;SDS011;5865;48.776;9.280;2023-03-01T12:48:36;13.97;;;10.50;;
11618;SDS011;5865;48.776;9.280;2023-03-01T12:51:10;13.37;;;10.43;;
11618;SDS011;5865;48.776;9.280;2023-03-01T12:53:41;15.07;;;10.90;;
11618;SDS011;5865;48.776;9.280;2023-03-01T12:56:12;14.57;;;10.63;;
11618;SDS011;5865;48.776;9.280;2023-03-01T12:58:45;14.97;;;10.13;;
11618;SDS011;5865;48.776;9.280;2023-03-01T13:01:22;14.70;;;10.33;;
11618;SDS011;5865;48.776;9.280;2023-03-01T13:04:05;14.27;;;10.40;;
11618;SDS011;5865;48.776;9.280;2023-03-01T13:06:42;13.50;;;10.20;;
11618;SDS011;5865;48.776;9.280;2023-03-01T13:09:22;13.40;;;10.20;;
11618;SDS011;5865;48.776;9.280;2023-03-01T13:11:56;14.20;;;10.30;;
11618;SDS011;5865;48.776;9.280;2023-03-01T13:14:37;16.07;;;10.70;;
11618;SDS011;5865;48.776;9.280;2023-03-01T13:17:30;13.97;;;10.27;;
11618;SDS011;5865;48.776;9.280;2023-03-01T13:19:59;13.10;;;10.23;;
11618;SDS011;5865;48.776;9.280;2023-03-01T13:22:27;13.67;;;9.33;;
11618;SDS011;5865;48.776;9.280;2023-03-01T13:25:10;13.33;;;9.43;;
11618;SDS011;5865;48.776;9.280;2023-03-01T13:27:40;11.23;;;9.50;;
11618;SDS011;5865;48.776;9.280;2023-03-01T13:36:13;10.73;;;8.67;;
11618;SDS011;5865;48.776;9.280;2023-03-01T13:39:26;11.87;;;9.30;;
11618;SDS011;5865;48.776;9.280;2023-03-01T13:41:57;12.40;;;8.97;;
11618;SDS011;5865;48.776;9.280;2023-03-01T13:44:26;12.47;;;9.77;;
11618;SDS011;5865;48.776;9.280;2023-03-01T13:46:57;13.07;;;10.00;;
11618;SDS011;5865;48.776;9.280;2023-03-01T13:49:28;14.97;;;9.90;;
11618;SDS011;5865;48.776;9.280;2023-03-01T13:51:59;13.90;;;9.63;;
11618;SDS011;5865;48.776;9.280;2023-03-01T13:54:29;13.60;;;10.30;;
11618;SDS011;5865;48.776;9.280;2023-03-01T13:56:59;12.97;;;10.07;;
11618;SDS011;5865;48.776;9.280;2023-03-01T13:59:28;13.63;;;10.40;;
11618;SDS011;5865;48.776;9.280;2023-03-01T14:02:00;16.30;;;10.33;;
11618;SDS011;5865;48.776;9.280;2023-03-01T14:04:28;14.73;;;10.57;;
11618;SDS011;5865;48.776;9.280;2023-03-01T14:07:10;12.33;;;8.27;;
11618;SDS011;5865;48.776;9.280;2023-03-01T14:09:39;13.10;;;9.47;;
11618;SDS011;5865;48.776;9.280;2023-03-01T14:12:19;12.60;;;10.20;;
11618;SDS011;5865;48.776;9.280;2023-03-01T14:14:55;13.20;;;10.53;;
11618;SDS011;5865;48.776;9.280;2023-03-01T14:17:42;11.83;;;9.43;;
11618;SDS011;5865;48.776;9.280;2023-03-01T14:20:19;14.33;;;10.63;;
11618;SDS011;5865;48.776;9.280;2023-03-01T14:22:48;14.40;;;10.30;;
11618;SDS011;5865;48.776;9.280;2023-03-01T14:28:04;13.33;;;10.43;;
11618;SDS011;5865;48.776;9.280;2023-03-01T14:30:42;14.27;;;9.80;;
11618;SDS011;5865;48.776;9.280;2023-03-01T14:33:19;14.97;;;10.20;;
11618;SDS011;5865;48.776;9.280;2023-03-01T14:35:52;12.80;;;10.10;;
11618;SDS011;5865;48.776;9.280;2023-03-01T14:38:28;14.03;;;11.10;;
11618;SDS011;5865;48.776;9.280;2023-03-01T14:40:58;12.10;;;10.10;;
11618;SDS011;5865;48.776;9.280;2023-03-01T14:43:28;14.13;;;10.40;;
11618;SDS011;5865;48.776;9.280;2023-03-01T14:45:56;13.77;;;10.97;;
11618;SDS011;5865;48.776;9.280;2023-03-01T14:48:26;13.57;;;10.97;;
11618;SDS011;5865;48.776;9.280;2023-03-01T14:50:54;14.37;;;10.80;;
11618;SDS011;5865;48.776;9.280;2023-03-01T14:53:23;15.10;;;10.90;;
11618;SDS011;5865;48.776;9.280;2023-03-01T14:55:52;14.37;;;11.20;;
11618;SDS011;5865;48.776;9.280;2023-03-01T14:58:23;14.60;;;10.77;;
11618;SDS011;5865;48.776;9.280;2023-03-01T15:00:51;14.47;;;10.50;;
11618;SDS011;5865;48.776;9.280;2023-03-01T15:03:26;13.57;;;10.40;;
11618;SDS011;5865;48.776;9.280;2023-03-01T15:05:57;13.07;;;9.83;;
11618;SDS011;5865;48.776;9.280;2023-03-01T15:08:27;14.67;;;10.43;;
11618;SDS011;5865;48.776;9.280;2023-03-01T15:11:02;13.00;;;10.20;;
11618;SDS011;5865;48.776;9.280;2023-03-01T15:13:31;13.67;;;10.27;;
11618;SDS011;5865;48.776;9.280;2023-03-01T15:16:06;14.13;;;9.83;;
11618;SDS011;5865;48.776;9.280;2023-03-01T15:18:37;12.57;;;10.40;;
11618;SDS011;5865;48.776;9.280;2023-03-01T15:21:13;14.23;;;10.90;;
11618;SDS011;5865;48.776;9.280;2023-03-01T15:23:47;12.83;;;10.20;;